Flugplatz Lechfeld Airport

Bericht für ETSL

vom 23.08. um 13:20 UTC

Wind 8 kt aus 40°

Sichtweite 10 km oder mehr

Temperatur 20.0°C

Taupunkt 15.0°C

Luftfeuchtigkeit 73%

Luftdruck 1025 hPa

ETSL 231320Z AUTO 04008KT 9999 // ////// 20/15 Q1025 ///

Prognose für ETSL

vom 23.08. um 00:00 UTC

Zwischen 00:00 UTC und 00:00 UTC

Wind 8 kt aus 60°

Sichtweite 10 km oder mehr

keine signifikanten Wettererscheinungen

aufgelockert bewölkt in 4000 ft

TAF AMD ETSL 230955Z 2309/2317 06008KT 9999 NSW SCT040 CANCEL 1020 BY ETGL
Impressum